sensor_id;sensor_type;location;lat;lon;timestamp;P1;durP1;ratioP1;P2;durP2;ratioP2
46701;SDS011;33449;50.712;7.124;2023-05-10T00:01:56;3.58;;;1.02;;
46701;SDS011;33449;50.712;7.124;2023-05-10T00:04:23;2.25;;;1.10;;
46701;SDS011;33449;50.712;7.124;2023-05-10T00:12:28;1.50;;;1.03;;
46701;SDS011;33449;50.712;7.124;2023-05-10T00:14:55;3.80;;;1.08;;
46701;SDS011;33449;50.712;7.124;2023-05-10T00:17:22;1.75;;;1.02;;
46701;SDS011;33449;50.712;7.124;2023-05-10T00:19:49;4.63;;;2.08;;
46701;SDS011;33449;50.712;7.124;2023-05-10T00:22:16;4.50;;;2.40;;
46701;SDS011;33449;50.712;7.124;2023-05-10T00:24:43;3.75;;;1.63;;
46701;SDS011;33449;50.712;7.124;2023-05-10T00:27:27;4.72;;;1.48;;
46701;SDS011;33449;50.712;7.124;2023-05-10T00:29:54;3.35;;;1.85;;
46701;SDS011;33449;50.712;7.124;2023-05-10T00:32:21;4.00;;;2.05;;
46701;SDS011;33449;50.712;7.124;2023-05-10T00:34:48;2.33;;;1.40;;
46701;SDS011;33449;50.712;7.124;2023-05-10T00:37:16;2.80;;;1.80;;
46701;SDS011;33449;50.712;7.124;2023-05-10T00:42:26;10.13;;;1.40;;
46701;SDS011;33449;50.712;7.124;2023-05-10T00:44:53;1.98;;;0.98;;
46701;SDS011;33449;50.712;7.124;2023-05-10T00:47:20;2.15;;;1.13;;
46701;SDS011;33449;50.712;7.124;2023-05-10T00:49:47;4.32;;;1.05;;
46701;SDS011;33449;50.712;7.124;2023-05-10T00:52:15;2.22;;;1.10;;
46701;SDS011;33449;50.712;7.124;2023-05-10T00:57:22;2.60;;;0.80;;
46701;SDS011;33449;50.712;7.124;2023-05-10T00:59:49;1.38;;;1.02;;
46701;SDS011;33449;50.712;7.124;2023-05-10T01:02:17;2.05;;;1.10;;
46701;SDS011;33449;50.712;7.124;2023-05-10T01:04:44;1.60;;;0.95;;
46701;SDS011;33449;50.712;7.124;2023-05-10T01:07:11;1.75;;;1.10;;
46701;SDS011;33449;50.712;7.124;2023-05-10T01:09:41;2.80;;;1.10;;
46701;SDS011;33449;50.712;7.124;2023-05-10T01:12:19;1.08;;;0.60;;
46701;SDS011;33449;50.712;7.124;2023-05-10T01:14:47;2.05;;;1.23;;
46701;SDS011;33449;50.712;7.124;2023-05-10T01:17:14;3.17;;;1.00;;
46701;SDS011;33449;50.712;7.124;2023-05-10T01:19:42;3.90;;;1.25;;
46701;SDS011;33449;50.712;7.124;2023-05-10T01:35:34;4.68;;;1.17;;
46701;SDS011;33449;50.712;7.124;2023-05-10T01:43:37;1.95;;;1.13;;
46701;SDS011;33449;50.712;7.124;2023-05-10T01:46:10;1.60;;;1.25;;
46701;SDS011;33449;50.712;7.124;2023-05-10T01:51:19;2.97;;;1.48;;
46701;SDS011;33449;50.712;7.124;2023-05-10T01:53:48;2.97;;;1.45;;
46701;SDS011;33449;50.712;7.124;2023-05-10T01:56:16;2.15;;;1.38;;
46701;SDS011;33449;50.712;7.124;2023-05-10T01:58:43;2.20;;;1.35;;
46701;SDS011;33449;50.712;7.124;2023-05-10T02:01:12;4.93;;;1.53;;
46701;SDS011;33449;50.712;7.124;2023-05-10T02:03:43;3.05;;;1.77;;
46701;SDS011;33449;50.712;7.124;2023-05-10T02:06:11;3.70;;;1.63;;
46701;SDS011;33449;50.712;7.124;2023-05-10T02:08:39;2.97;;;1.60;;
46701;SDS011;33449;50.712;7.124;2023-05-10T02:11:06;2.40;;;1.55;;
46701;SDS011;33449;50.712;7.124;2023-05-10T02:13:34;12.63;;;3.78;;
46701;SDS011;33449;50.712;7.124;2023-05-10T02:16:03;2.33;;;1.20;;
46701;SDS011;33449;50.712;7.124;2023-05-10T02:21:03;4.22;;;2.28;;
46701;SDS011;33449;50.712;7.124;2023-05-10T02:23:31;4.25;;;1.60;;
46701;SDS011;33449;50.712;7.124;2023-05-10T02:25:58;2.63;;;1.52;;
46701;SDS011;33449;50.712;7.124;2023-05-10T02:28:28;4.53;;;1.67;;
46701;SDS011;33449;50.712;7.124;2023-05-10T02:30:55;5.72;;;1.60;;
46701;SDS011;33449;50.712;7.124;2023-05-10T02:36:02;3.97;;;1.52;;
46701;SDS011;33449;50.712;7.124;2023-05-10T02:38:30;3.13;;;1.58;;
46701;SDS011;33449;50.712;7.124;2023-05-10T02:40:58;3.45;;;1.55;;
46701;SDS011;33449;50.712;7.124;2023-05-10T02:43:26;3.47;;;1.50;;
46701;SDS011;33449;50.712;7.124;2023-05-10T02:45:54;6.43;;;2.80;;
46701;SDS011;33449;50.712;7.124;2023-05-10T02:51:00;3.72;;;1.40;;
46701;SDS011;33449;50.712;7.124;2023-05-10T02:53:31;2.05;;;1.38;;
46701;SDS011;33449;50.712;7.124;2023-05-10T02:55:59;6.35;;;1.83;;
46701;SDS011;33449;50.712;7.124;2023-05-10T02:58:27;4.05;;;1.88;;
46701;SDS011;33449;50.712;7.124;2023-05-10T03:00:54;3.05;;;1.98;;
46701;SDS011;33449;50.712;7.124;2023-05-10T03:05:54;5.30;;;1.83;;
46701;SDS011;33449;50.712;7.124;2023-05-10T03:08:22;4.40;;;1.88;;
46701;SDS011;33449;50.712;7.124;2023-05-10T03:16:23;6.10;;;3.13;;
46701;SDS011;33449;50.712;7.124;2023-05-10T03:19:05;6.80;;;3.10;;
46701;SDS011;33449;50.712;7.124;2023-05-10T03:21:33;6.10;;;2.80;;
46701;SDS011;33449;50.712;7.124;2023-05-10T03:24:05;7.68;;;3.38;;
46701;SDS011;33449;50.712;7.124;2023-05-10T03:27:02;9.95;;;3.67;;
46701;SDS011;33449;50.712;7.124;2023-05-10T03:29:31;7.50;;;3.00;;
46701;SDS011;33449;50.712;7.124;2023-05-10T03:31:58;5.80;;;3.05;;
46701;SDS011;33449;50.712;7.124;2023-05-10T03:34:26;5.15;;;3.17;;
46701;SDS011;33449;50.712;7.124;2023-05-10T03:36:53;8.57;;;3.47;;
46701;SDS011;33449;50.712;7.124;2023-05-10T03:41:47;12.38;;;4.13;;
46701;SDS011;33449;50.712;7.124;2023-05-10T03:44:14;9.68;;;4.60;;
46701;SDS011;33449;50.712;7.124;2023-05-10T03:46:41;10.55;;;4.65;;
46701;SDS011;33449;50.712;7.124;2023-05-10T03:49:08;10.65;;;5.72;;
46701;SDS011;33449;50.712;7.124;2023-05-10T03:51:35;13.57;;;5.90;;
46701;SDS011;33449;50.712;7.124;2023-05-10T03:56:58;16.85;;;8.50;;
46701;SDS011;33449;50.712;7.124;2023-05-10T03:59:42;18.88;;;7.78;;
46701;SDS011;33449;50.712;7.124;2023-05-10T04:02:09;14.50;;;7.25;;
46701;SDS011;33449;50.712;7.124;2023-05-10T04:04:36;21.88;;;9.48;;
46701;SDS011;33449;50.712;7.124;2023-05-10T04:07:03;20.05;;;8.95;;
46701;SDS011;33449;50.712;7.124;2023-05-10T04:09:31;19.67;;;9.43;;
46701;SDS011;33449;50.712;7.124;2023-05-10T04:12:01;19.83;;;10.10;;
46701;SDS011;33449;50.712;7.124;2023-05-10T04:17:38;19.60;;;10.52;;
46701;SDS011;33449;50.712;7.124;2023-05-10T04:20:06;24.05;;;11.52;;
46701;SDS011;33449;50.712;7.124;2023-05-10T04:22:33;22.27;;;10.75;;
46701;SDS011;33449;50.712;7.124;2023-05-10T04:25:00;20.30;;;10.82;;
46701;SDS011;33449;50.712;7.124;2023-05-10T04:27:27;26.13;;;10.30;;
46701;SDS011;33449;50.712;7.124;2023-05-10T04:32:40;23.75;;;12.25;;
46701;SDS011;33449;50.712;7.124;2023-05-10T04:35:07;22.45;;;11.57;;
46701;SDS011;33449;50.712;7.124;2023-05-10T04:37:36;23.23;;;11.65;;
46701;SDS011;33449;50.712;7.124;2023-05-10T04:40:03;24.58;;;12.10;;
46701;SDS011;33449;50.712;7.124;2023-05-10T04:42:31;25.92;;;12.55;;
46701;SDS011;33449;50.712;7.124;2023-05-10T04:47:31;23.77;;;11.85;;
46701;SDS011;33449;50.712;7.124;2023-05-10T04:49:58;26.27;;;11.88;;
46701;SDS011;33449;50.712;7.124;2023-05-10T04:52:25;23.95;;;12.75;;
46701;SDS011;33449;50.712;7.124;2023-05-10T04:57:26;23.73;;;12.48;;
46701;SDS011;33449;50.712;7.124;2023-05-10T05:02:35;25.08;;;12.93;;
46701;SDS011;33449;50.712;7.124;2023-05-10T05:05:02;25.02;;;13.32;;
46701;SDS011;33449;50.712;7.124;2023-05-10T05:07:29;24.65;;;12.98;;
46701;SDS011;33449;50.712;7.124;2023-05-10T05:09:56;25.90;;;13.88;;
46701;SDS011;33449;50.712;7.124;2023-05-10T05:12:23;26.48;;;12.52;;
46701;SDS011;33449;50.712;7.124;2023-05-10T05:17:44;24.75;;;12.43;;
46701;SDS011;33449;50.712;7.124;2023-05-10T05:20:25;25.73;;;13.65;;
46701;SDS011;33449;50.712;7.124;2023-05-10T05:22:52;28.80;;;14.18;;
46701;SDS011;33449;50.712;7.124;2023-05-10T05:25:19;24.50;;;13.30;;
46701;SDS011;33449;50.712;7.124;2023-05-10T05:27:46;25.95;;;13.25;;
46701;SDS011;33449;50.712;7.124;2023-05-10T05:30:13;22.13;;;11.50;;
46701;SDS011;33449;50.712;7.124;2023-05-10T05:35:22;18.20;;;9.70;;
46701;SDS011;33449;50.712;7.124;2023-05-10T05:37:49;20.48;;;10.55;;
46701;SDS011;33449;50.712;7.124;2023-05-10T05:40:16;18.30;;;10.73;;
46701;SDS011;33449;50.712;7.124;2023-05-10T05:42:43;17.77;;;9.25;;
46701;SDS011;33449;50.712;7.124;2023-05-10T05:45:10;16.15;;;8.10;;
46701;SDS011;33449;50.712;7.124;2023-05-10T05:47:42;12.35;;;7.22;;
46701;SDS011;33449;50.712;7.124;2023-05-10T05:50:19;17.88;;;8.32;;
46701;SDS011;33449;50.712;7.124;2023-05-10T05:52:46;14.48;;;7.90;;
46701;SDS011;33449;50.712;7.124;2023-05-10T05:55:13;13.93;;;7.90;;
46701;SDS011;33449;50.712;7.124;2023-05-10T05:57:41;15.98;;;8.07;;
46701;SDS011;33449;50.712;7.124;2023-05-10T06:00:08;14.32;;;7.18;;
46701;SDS011;33449;50.712;7.124;2023-05-10T06:02:35;14.90;;;7.20;;
46701;SDS011;33449;50.712;7.124;2023-05-10T06:05:16;13.50;;;7.28;;
46701;SDS011;33449;50.712;7.124;2023-05-10T06:07:43;17.83;;;7.30;;
46701;SDS011;33449;50.712;7.124;2023-05-10T06:10:11;11.80;;;7.25;;
46701;SDS011;33449;50.712;7.124;2023-05-10T06:12:38;14.73;;;7.70;;
46701;SDS011;33449;50.712;7.124;2023-05-10T06:15:05;12.32;;;6.93;;
46701;SDS011;33449;50.712;7.124;2023-05-10T06:23:21;10.27;;;6.85;;
46701;SDS011;33449;50.712;7.124;2023-05-10T06:25:48;18.50;;;6.65;;
46701;SDS011;33449;50.712;7.124;2023-05-10T06:28:17;12.32;;;6.75;;
46701;SDS011;33449;50.712;7.124;2023-05-10T06:30:44;13.50;;;6.45;;
46701;SDS011;33449;50.712;7.124;2023-05-10T06:33:11;10.93;;;6.55;;
46701;SDS011;33449;50.712;7.124;2023-05-10T06:38:15;11.88;;;6.07;;
46701;SDS011;33449;50.712;7.124;2023-05-10T06:40:42;12.05;;;5.50;;
46701;SDS011;33449;50.712;7.124;2023-05-10T06:43:10;10.98;;;6.45;;
46701;SDS011;33449;50.712;7.124;2023-05-10T06:45:37;11.68;;;5.95;;
46701;SDS011;33449;50.712;7.124;2023-05-10T06:48:04;11.80;;;6.43;;
46701;SDS011;33449;50.712;7.124;2023-05-10T06:53:04;12.05;;;6.50;;
46701;SDS011;33449;50.712;7.124;2023-05-10T06:55:31;10.05;;;5.82;;
46701;SDS011;33449;50.712;7.124;2023-05-10T06:57:58;18.08;;;7.18;;
46701;SDS011;33449;50.712;7.124;2023-05-10T07:00:25;11.75;;;5.88;;
46701;SDS011;33449;50.712;7.124;2023-05-10T07:02:53;12.60;;;6.40;;
46701;SDS011;33449;50.712;7.124;2023-05-10T07:13:12;12.98;;;6.65;;
46701;SDS011;33449;50.712;7.124;2023-05-10T07:15:39;10.07;;;5.97;;
46701;SDS011;33449;50.712;7.124;2023-05-10T07:18:06;13.93;;;5.63;;
46701;SDS011;33449;50.712;7.124;2023-05-10T07:23:08;10.38;;;5.32;;
46701;SDS011;33449;50.712;7.124;2023-05-10T07:25:36;11.38;;;5.78;;
46701;SDS011;33449;50.712;7.124;2023-05-10T07:28:03;14.40;;;5.90;;
46701;SDS011;33449;50.712;7.124;2023-05-10T07:30:31;10.52;;;5.28;;
46701;SDS011;33449;50.712;7.124;2023-05-10T07:32:58;7.07;;;5.13;;
46701;SDS011;33449;50.712;7.124;2023-05-10T07:37:59;9.27;;;5.13;;
46701;SDS011;33449;50.712;7.124;2023-05-10T07:40:27;8.35;;;4.82;;
46701;SDS011;33449;50.712;7.124;2023-05-10T07:42:54;10.52;;;4.43;;
46701;SDS011;33449;50.712;7.124;2023-05-10T07:45:21;7.07;;;3.95;;
46701;SDS011;33449;50.712;7.124;2023-05-10T07:47:49;9.43;;;4.40;;
46701;SDS011;33449;50.712;7.124;2023-05-10T07:55:31;15.32;;;5.38;;
46701;SDS011;33449;50.712;7.124;2023-05-10T07:57:58;8.32;;;5.30;;
46701;SDS011;33449;50.712;7.124;2023-05-10T08:00:27;13.20;;;4.90;;
46701;SDS011;33449;50.712;7.124;2023-05-10T08:02:54;10.75;;;4.70;;
46701;SDS011;33449;50.712;7.124;2023-05-10T08:07:50;7.82;;;4.45;;
46701;SDS011;33449;50.712;7.124;2023-05-10T08:10:17;7.15;;;4.43;;
46701;SDS011;33449;50.712;7.124;2023-05-10T08:12:44;7.25;;;3.92;;
46701;SDS011;33449;50.712;7.124;2023-05-10T08:15:11;11.27;;;4.03;;
46701;SDS011;33449;50.712;7.124;2023-05-10T08:17:38;9.50;;;3.42;;
46701;SDS011;33449;50.712;7.124;2023-05-10T08:20:05;6.55;;;3.42;;
46701;SDS011;33449;50.712;7.124;2023-05-10T08:22:33;6.53;;;3.42;;
46701;SDS011;33449;50.712;7.124;2023-05-10T08:25:01;6.15;;;3.60;;
46701;SDS011;33449;50.712;7.124;2023-05-10T08:27:28;5.03;;;2.83;;
46701;SDS011;33449;50.712;7.124;2023-05-10T08:29:55;6.90;;;2.97;;
46701;SDS011;33449;50.712;7.124;2023-05-10T08:32:22;7.00;;;3.03;;
46701;SDS011;33449;50.712;7.124;2023-05-10T08:34:49;5.75;;;2.35;;
46701;SDS011;33449;50.712;7.124;2023-05-10T08:37:16;6.43;;;2.70;;
46701;SDS011;33449;50.712;7.124;2023-05-10T08:39:43;5.40;;;2.22;;
46701;SDS011;33449;50.712;7.124;2023-05-10T08:42:11;7.22;;;2.55;;
46701;SDS011;33449;50.712;7.124;2023-05-10T08:44:39;4.55;;;2.72;;
46701;SDS011;33449;50.712;7.124;2023-05-10T08:47:06;4.72;;;2.65;;
46701;SDS011;33449;50.712;7.124;2023-05-10T08:49:34;8.40;;;2.50;;
46701;SDS011;33449;50.712;7.124;2023-05-10T08:52:02;4.78;;;2.72;;
46701;SDS011;33449;50.712;7.124;2023-05-10T08:54:31;5.07;;;2.67;;
46701;SDS011;33449;50.712;7.124;2023-05-10T08:56:58;6.00;;;2.63;;
46701;SDS011;33449;50.712;7.124;2023-05-10T08:59:25;5.40;;;2.58;;
46701;SDS011;33449;50.712;7.124;2023-05-10T09:01:53;6.03;;;2.35;;
46701;SDS011;33449;50.712;7.124;2023-05-10T09:04:32;2.70;;;1.38;;
46701;SDS011;33449;50.712;7.124;2023-05-10T09:07:00;2.22;;;1.15;;
46701;SDS011;33449;50.712;7.124;2023-05-10T09:09:27;3.40;;;1.10;;
46701;SDS011;33449;50.712;7.124;2023-05-10T09:11:54;5.25;;;1.48;;
46701;SDS011;33449;50.712;7.124;2023-05-10T09:14:23;2.72;;;1.45;;
46701;SDS011;33449;50.712;7.124;2023-05-10T09:17:09;2.33;;;1.10;;
46701;SDS011;33449;50.712;7.124;2023-05-10T09:19:36;4.85;;;1.60;;
46701;SDS011;33449;50.712;7.124;2023-05-10T09:22:03;4.93;;;1.55;;
46701;SDS011;33449;50.712;7.124;2023-05-10T09:24:30;1.50;;;1.08;;
46701;SDS011;33449;50.712;7.124;2023-05-10T09:26:57;3.50;;;1.20;;
46701;SDS011;33449;50.712;7.124;2023-05-10T09:29:25;4.20;;;1.25;;
46701;SDS011;33449;50.712;7.124;2023-05-10T09:34:31;1.45;;;0.80;;
46701;SDS011;33449;50.712;7.124;2023-05-10T09:37:01;2.17;;;1.10;;
46701;SDS011;33449;50.712;7.124;2023-05-10T09:39:38;1.90;;;1.00;;
46701;SDS011;33449;50.712;7.124;2023-05-10T09:42:06;2.50;;;1.40;;
46701;SDS011;33449;50.712;7.124;2023-05-10T09:44:33;2.70;;;1.10;;
46701;SDS011;33449;50.712;7.124;2023-05-10T09:49:34;2.90;;;1.20;;
46701;SDS011;33449;50.712;7.124;2023-05-10T09:54:28;2.80;;;1.67;;
46701;SDS011;33449;50.712;7.124;2023-05-10T09:56:56;7.43;;;1.30;;
46701;SDS011;33449;50.712;7.124;2023-05-10T09:59:24;2.58;;;1.38;;
46701;SDS011;33449;50.712;7.124;2023-05-10T10:04:28;2.58;;;1.00;;
46701;SDS011;33449;50.712;7.124;2023-05-10T10:06:59;3.33;;;1.13;;
46701;SDS011;33449;50.712;7.124;2023-05-10T10:09:26;3.78;;;0.82;;
46701;SDS011;33449;50.712;7.124;2023-05-10T10:11:54;1.42;;;0.98;;
46701;SDS011;33449;50.712;7.124;2023-05-10T10:14:22;1.52;;;0.95;;
46701;SDS011;33449;50.712;7.124;2023-05-10T10:19:33;1.88;;;1.05;;
46701;SDS011;33449;50.712;7.124;2023-05-10T10:22:19;3.13;;;1.10;;
46701;SDS011;33449;50.712;7.124;2023-05-10T10:24:46;5.40;;;1.90;;
46701;SDS011;33449;50.712;7.124;2023-05-10T10:27:23;3.42;;;2.10;;
46701;SDS011;33449;50.712;7.124;2023-05-10T10:29:58;4.90;;;2.10;;
46701;SDS011;33449;50.712;7.124;2023-05-10T10:32:42;9.52;;;2.80;;
46701;SDS011;33449;50.712;7.124;2023-05-10T10:35:14;4.90;;;2.60;;
46701;SDS011;33449;50.712;7.124;2023-05-10T10:40:27;3.70;;;1.85;;
46701;SDS011;33449;50.712;7.124;2023-05-10T10:42:56;2.90;;;1.77;;
46701;SDS011;33449;50.712;7.124;2023-05-10T10:45:24;3.65;;;2.35;;
46701;SDS011;33449;50.712;7.124;2023-05-10T10:50:44;4.80;;;3.13;;
46701;SDS011;33449;50.712;7.124;2023-05-10T10:53:14;3.78;;;2.05;;
46701;SDS011;33449;50.712;7.124;2023-05-10T10:58:33;4.03;;;2.00;;
46701;SDS011;33449;50.712;7.124;2023-05-10T11:03:40;6.28;;;2.28;;
46701;SDS011;33449;50.712;7.124;2023-05-10T11:06:08;2.78;;;1.38;;
46701;SDS011;33449;50.712;7.124;2023-05-10T11:08:41;2.53;;;1.20;;
46701;SDS011;33449;50.712;7.124;2023-05-10T11:11:13;2.33;;;1.17;;
46701;SDS011;33449;50.712;7.124;2023-05-10T11:16:19;2.25;;;1.48;;
46701;SDS011;33449;50.712;7.124;2023-05-10T11:21:20;0.65;;;0.65;;
46701;SDS011;33449;50.712;7.124;2023-05-10T11:26:14;1.52;;;0.60;;
46701;SDS011;33449;50.712;7.124;2023-05-10T11:28:44;1.85;;;0.60;;
46701;SDS011;33449;50.712;7.124;2023-05-10T11:31:15;1.27;;;0.57;;
46701;SDS011;33449;50.712;7.124;2023-05-10T11:33:46;1.02;;;0.70;;
46701;SDS011;33449;50.712;7.124;2023-05-10T11:36:14;0.95;;;0.50;;
46701;SDS011;33449;50.712;7.124;2023-05-10T11:38:41;0.80;;;0.70;;
46701;SDS011;33449;50.712;7.124;2023-05-10T11:41:09;3.38;;;0.82;;
46701;SDS011;33449;50.712;7.124;2023-05-10T11:43:40;1.58;;;0.98;;
46701;SDS011;33449;50.712;7.124;2023-05-10T11:46:09;1.80;;;0.70;;
46701;SDS011;33449;50.712;7.124;2023-05-10T11:48:39;0.68;;;0.68;;
46701;SDS011;33449;50.712;7.124;2023-05-10T11:51:07;0.93;;;0.50;;
46701;SDS011;33449;50.712;7.124;2023-05-10T11:53:34;1.85;;;0.85;;
46701;SDS011;33449;50.712;7.124;2023-05-10T11:56:05;0.77;;;0.60;;
46701;SDS011;33449;50.712;7.124;2023-05-10T11:58:33;2.03;;;0.75;;
46701;SDS011;33449;50.712;7.124;2023-05-10T12:01:23;1.42;;;0.73;;
46701;SDS011;33449;50.712;7.124;2023-05-10T12:04:04;2.35;;;0.82;;
46701;SDS011;33449;50.712;7.124;2023-05-10T12:06:32;1.02;;;0.75;;
46701;SDS011;33449;50.712;7.124;2023-05-10T12:09:07;1.88;;;0.93;;
46701;SDS011;33449;50.712;7.124;2023-05-10T12:11:48;0.95;;;0.80;;
46701;SDS011;33449;50.712;7.124;2023-05-10T12:14:18;2.58;;;1.10;;
46701;SDS011;33449;50.712;7.124;2023-05-10T12:16:47;1.55;;;0.80;;
46701;SDS011;33449;50.712;7.124;2023-05-10T12:19:43;0.98;;;0.80;;
46701;SDS011;33449;50.712;7.124;2023-05-10T12:22:34;2.60;;;1.10;;
46701;SDS011;33449;50.712;7.124;2023-05-10T12:25:23;1.88;;;1.05;;
46701;SDS011;33449;50.712;7.124;2023-05-10T12:28:14;1.73;;;0.98;;
46701;SDS011;33449;50.712;7.124;2023-05-10T12:31:27;2.08;;;1.20;;
46701;SDS011;33449;50.712;7.124;2023-05-10T12:37:17;2.05;;;1.20;;
46701;SDS011;33449;50.712;7.124;2023-05-10T12:40:10;2.65;;;0.90;;
46701;SDS011;33449;50.712;7.124;2023-05-10T12:49:27;0.82;;;0.70;;
46701;SDS011;33449;50.712;7.124;2023-05-10T12:55:57;1.10;;;0.70;;
46701;SDS011;33449;50.712;7.124;2023-05-10T12:58:30;1.95;;;1.00;;
46701;SDS011;33449;50.712;7.124;2023-05-10T13:01:25;5.10;;;1.45;;
46701;SDS011;33449;50.712;7.124;2023-05-10T13:04:27;2.20;;;1.45;;
46701;SDS011;33449;50.712;7.124;2023-05-10T13:06:55;2.08;;;1.48;;
46701;SDS011;33449;50.712;7.124;2023-05-10T13:09:25;4.32;;;1.75;;
46701;SDS011;33449;50.712;7.124;2023-05-10T13:11:53;2.50;;;1.73;;
46701;SDS011;33449;50.712;7.124;2023-05-10T13:14:20;4.88;;;2.05;;
46701;SDS011;33449;50.712;7.124;2023-05-10T13:16:47;4.45;;;2.92;;
46701;SDS011;33449;50.712;7.124;2023-05-10T13:19:15;3.97;;;2.28;;
46701;SDS011;33449;50.712;7.124;2023-05-10T13:21:42;2.53;;;1.98;;
46701;SDS011;33449;50.712;7.124;2023-05-10T13:24:12;3.17;;;1.90;;
46701;SDS011;33449;50.712;7.124;2023-05-10T13:26:40;4.45;;;1.80;;
46701;SDS011;33449;50.712;7.124;2023-05-10T13:29:07;3.47;;;1.85;;
46701;SDS011;33449;50.712;7.124;2023-05-10T13:31:34;2.72;;;1.42;;
46701;SDS011;33449;50.712;7.124;2023-05-10T13:36:34;3.20;;;2.13;;
46701;SDS011;33449;50.712;7.124;2023-05-10T13:39:06;3.42;;;1.80;;
46701;SDS011;33449;50.712;7.124;2023-05-10T13:42:17;2.20;;;1.40;;
46701;SDS011;33449;50.712;7.124;2023-05-10T13:45:12;6.60;;;2.28;;
46701;SDS011;33449;50.712;7.124;2023-05-10T13:47:47;5.40;;;3.30;;
46701;SDS011;33449;50.712;7.124;2023-05-10T13:50:39;9.43;;;4.70;;
46701;SDS011;33449;50.712;7.124;2023-05-10T13:53:34;6.80;;;4.03;;
46701;SDS011;33449;50.712;7.124;2023-05-10T13:56:14;6.43;;;2.90;;
46701;SDS011;33449;50.712;7.124;2023-05-10T13:59:10;4.55;;;1.73;;
46701;SDS011;33449;50.712;7.124;2023-05-10T14:01:58;5.78;;;2.20;;
46701;SDS011;33449;50.712;7.124;2023-05-10T14:04:37;3.33;;;2.13;;
46701;SDS011;33449;50.712;7.124;2023-05-10T14:10:12;6.90;;;2.38;;
46701;SDS011;33449;50.712;7.124;2023-05-10T14:16:09;6.45;;;2.35;;
46701;SDS011;33449;50.712;7.124;2023-05-10T14:21:32;5.05;;;2.97;;
46701;SDS011;33449;50.712;7.124;2023-05-10T14:24:00;3.72;;;2.78;;
46701;SDS011;33449;50.712;7.124;2023-05-10T14:26:27;6.28;;;3.13;;
46701;SDS011;33449;50.712;7.124;2023-05-10T14:28:54;18.92;;;5.88;;
46701;SDS011;33449;50.712;7.124;2023-05-10T14:31:21;8.88;;;4.35;;
46701;SDS011;33449;50.712;7.124;2023-05-10T14:36:36;8.20;;;4.07;;
46701;SDS011;33449;50.712;7.124;2023-05-10T14:39:45;5.68;;;3.38;;
46701;SDS011;33449;50.712;7.124;2023-05-10T14:42:19;9.27;;;4.55;;
46701;SDS011;33449;50.712;7.124;2023-05-10T14:45:09;9.30;;;4.43;;
46701;SDS011;33449;50.712;7.124;2023-05-10T14:47:51;9.10;;;3.20;;
46701;SDS011;33449;50.712;7.124;2023-05-10T14:50:25;9.20;;;3.55;;
46701;SDS011;33449;50.712;7.124;2023-05-10T14:53:02;6.63;;;3.03;;
46701;SDS011;33449;50.712;7.124;2023-05-10T14:55:29;7.88;;;4.50;;
46701;SDS011;33449;50.712;7.124;2023-05-10T14:57:56;5.22;;;2.22;;
46701;SDS011;33449;50.712;7.124;2023-05-10T15:00:24;3.92;;;2.55;;
46701;SDS011;33449;50.712;7.124;2023-05-10T15:02:52;4.60;;;2.40;;
46701;SDS011;33449;50.712;7.124;2023-05-10T15:05:20;3.72;;;2.17;;
46701;SDS011;33449;50.712;7.124;2023-05-10T15:07:47;4.60;;;1.95;;
46701;SDS011;33449;50.712;7.124;2023-05-10T15:10:14;5.70;;;2.28;;
46701;SDS011;33449;50.712;7.124;2023-05-10T15:12:41;4.07;;;1.73;;
46701;SDS011;33449;50.712;7.124;2023-05-10T15:15:09;3.42;;;2.00;;
46701;SDS011;33449;50.712;7.124;2023-05-10T15:17:36;2.30;;;1.40;;
46701;SDS011;33449;50.712;7.124;2023-05-10T15:20:03;1.85;;;1.15;;
46701;SDS011;33449;50.712;7.124;2023-05-10T15:22:31;4.32;;;1.70;;
46701;SDS011;33449;50.712;7.124;2023-05-10T15:24:59;4.35;;;1.40;;
46701;SDS011;33449;50.712;7.124;2023-05-10T15:27:27;2.22;;;1.20;;
46701;SDS011;33449;50.712;7.124;2023-05-10T15:29:55;5.82;;;1.50;;
46701;SDS011;33449;50.712;7.124;2023-05-10T15:32:22;7.10;;;2.35;;
46701;SDS011;33449;50.712;7.124;2023-05-10T15:34:49;3.58;;;1.92;;
46701;SDS011;33449;50.712;7.124;2023-05-10T15:37:17;2.70;;;1.42;;
46701;SDS011;33449;50.712;7.124;2023-05-10T15:39:44;2.35;;;1.70;;
46701;SDS011;33449;50.712;7.124;2023-05-10T15:42:12;6.07;;;1.83;;
46701;SDS011;33449;50.712;7.124;2023-05-10T15:44:39;2.47;;;1.63;;
46701;SDS011;33449;50.712;7.124;2023-05-10T15:47:06;3.13;;;1.50;;
46701;SDS011;33449;50.712;7.124;2023-05-10T15:52:28;4.78;;;1.98;;
46701;SDS011;33449;50.712;7.124;2023-05-10T15:55:10;2.15;;;1.50;;
46701;SDS011;33449;50.712;7.124;2023-05-10T16:00:11;5.22;;;1.90;;
46701;SDS011;33449;50.712;7.124;2023-05-10T16:02:43;6.05;;;1.98;;
46701;SDS011;33449;50.712;7.124;2023-05-10T16:05:13;6.25;;;1.70;;
46701;SDS011;33449;50.712;7.124;2023-05-10T16:07:41;5.55;;;1.40;;
46701;SDS011;33449;50.712;7.124;2023-05-10T16:10:20;2.53;;;1.40;;
46701;SDS011;33449;50.712;7.124;2023-05-10T16:12:56;2.80;;;1.80;;
46701;SDS011;33449;50.712;7.124;2023-05-10T16:15:25;6.80;;;2.33;;
46701;SDS011;33449;50.712;7.124;2023-05-10T16:17:55;3.97;;;2.03;;
46701;SDS011;33449;50.712;7.124;2023-05-10T16:20:32;3.95;;;2.17;;
46701;SDS011;33449;50.712;7.124;2023-05-10T16:23:03;8.70;;;1.95;;
46701;SDS011;33449;50.712;7.124;2023-05-10T16:25:31;2.95;;;1.92;;
46701;SDS011;33449;50.712;7.124;2023-05-10T16:27:59;4.10;;;1.90;;
46701;SDS011;33449;50.712;7.124;2023-05-10T16:30:26;5.88;;;2.47;;
46701;SDS011;33449;50.712;7.124;2023-05-10T16:32:55;5.43;;;2.40;;
46701;SDS011;33449;50.712;7.124;2023-05-10T16:35:23;3.80;;;2.30;;
46701;SDS011;33449;50.712;7.124;2023-05-10T16:54:44;3.92;;;2.08;;
46701;SDS011;33449;50.712;7.124;2023-05-10T16:57:14;3.20;;;1.23;;
46701;SDS011;33449;50.712;7.124;2023-05-10T16:59:45;1.30;;;1.20;;
46701;SDS011;33449;50.712;7.124;2023-05-10T17:07:46;3.20;;;1.13;;
46701;SDS011;33449;50.712;7.124;2023-05-10T17:10:19;1.35;;;1.10;;
46701;SDS011;33449;50.712;7.124;2023-05-10T17:12:47;2.63;;;1.00;;
46701;SDS011;33449;50.712;7.124;2023-05-10T17:15:20;5.82;;;1.30;;
46701;SDS011;33449;50.712;7.124;2023-05-10T17:17:48;1.95;;;1.25;;
46701;SDS011;33449;50.712;7.124;2023-05-10T17:20:15;13.48;;;2.67;;
46701;SDS011;33449;50.712;7.124;2023-05-10T17:22:43;2.55;;;1.27;;
46701;SDS011;33449;50.712;7.124;2023-05-10T17:25:12;2.78;;;1.35;;
46701;SDS011;33449;50.712;7.124;2023-05-10T17:30:34;1.40;;;1.10;;
46701;SDS011;33449;50.712;7.124;2023-05-10T17:33:08;2.80;;;1.25;;
46701;SDS011;33449;50.712;7.124;2023-05-10T17:35:43;2.95;;;1.48;;
46701;SDS011;33449;50.712;7.124;2023-05-10T17:38:11;1.70;;;1.20;;
46701;SDS011;33449;50.712;7.124;2023-05-10T17:43:24;2.45;;;1.50;;
46701;SDS011;33449;50.712;7.124;2023-05-10T17:45:54;1.10;;;0.95;;
46701;SDS011;33449;50.712;7.124;2023-05-10T17:48:22;3.47;;;1.30;;
46701;SDS011;33449;50.712;7.124;2023-05-10T17:50:55;6.35;;;1.63;;
46701;SDS011;33449;50.712;7.124;2023-05-10T17:53:25;2.60;;;1.50;;
46701;SDS011;33449;50.712;7.124;2023-05-10T17:55:52;1.75;;;1.15;;
46701;SDS011;33449;50.712;7.124;2023-05-10T17:58:26;3.83;;;1.30;;
46701;SDS011;33449;50.712;7.124;2023-05-10T18:00:56;2.80;;;1.27;;
46701;SDS011;33449;50.712;7.124;2023-05-10T18:03:28;1.98;;;1.13;;
46701;SDS011;33449;50.712;7.124;2023-05-10T18:11:18;2.85;;;0.95;;
46701;SDS011;33449;50.712;7.124;2023-05-10T18:13:55;3.00;;;1.10;;
46701;SDS011;33449;50.712;7.124;2023-05-10T18:16:23;3.60;;;1.45;;
46701;SDS011;33449;50.712;7.124;2023-05-10T18:18:58;2.40;;;1.33;;
46701;SDS011;33449;50.712;7.124;2023-05-10T18:21:27;1.92;;;1.17;;
46701;SDS011;33449;50.712;7.124;2023-05-10T18:23:57;1.70;;;1.27;;
46701;SDS011;33449;50.712;7.124;2023-05-10T18:26:28;3.60;;;1.23;;